Time;durP1;ratioP1;P1;durP2;ratioP2;P2;SDS_P1;SDS_P2;PMS_P1;PMS_P2;Temp;Humidity;BMP_temperature;BMP_pressure;BME280_temperature;BME280_humidity;BME280_pressure;Samples;Min_cycle;Max_cycle;Signal;HPM_P1;HPM_P2
2022/09/10 00:00:07;;;;;;;3.70;0.98;;;;;;;15.71;60.36;96536.63;4924901;29;20048;-83
2022/09/10 00:02:35;;;;;;;2.35;0.60;;;;;;;15.70;60.08;96529.75;4931504;29;20063;-87
2022/09/10 00:05:02;;;;;;;3.33;0.98;;;;;;;15.72;60.43;96535.63;4931347;29;20079;-87
2022/09/10 00:07:31;;;;;;;3.85;0.80;;;;;;;15.75;60.19;96535.19;4931123;29;20056;-82
2022/09/10 00:09:59;;;;;;;3.72;1.02;;;;;;;15.82;60.21;96529.84;4929591;29;20060;-82
2022/09/10 00:12:26;;;;;;;2.30;0.68;;;;;;;15.88;60.12;96539.50;4929882;29;20554;-82
2022/09/10 00:14:54;;;;;;;1.70;0.45;;;;;;;15.90;59.82;96540.09;4929350;29;20052;-84
2022/09/10 00:17:23;;;;;;;4.15;1.10;;;;;;;15.94;60.39;96550.97;4928243;29;20060;-83
2022/09/10 00:19:50;;;;;;;0.73;0.45;;;;;;;16.01;60.71;96573.59;4927220;29;20489;-81
2022/09/10 00:22:18;;;;;;;1.23;0.68;;;;;;;16.08;61.27;96575.38;4927326;29;20056;-83
2022/09/10 00:24:47;;;;;;;3.47;0.80;;;;;;;16.17;61.51;96595.91;4927601;29;20051;-81
2022/09/10 00:27:14;;;;;;;1.88;0.80;;;;;;;16.25;61.97;96594.84;4926484;29;20056;-82
2022/09/10 00:29:42;;;;;;;3.40;1.02;;;;;;;16.33;62.52;96585.84;4925661;29;20056;-80
2022/09/10 00:32:10;;;;;;;2.47;0.80;;;;;;;16.41;63.29;96585.56;4924243;29;20051;-80
2022/09/10 00:34:37;;;;;;;2.53;0.70;;;;;;;16.45;63.64;96582.25;4924445;29;20498;-80
2022/09/10 00:37:05;;;;;;;1.45;0.50;;;;;;;16.50;63.73;96576.34;4924387;29;20056;-80
2022/09/10 00:39:32;;;;;;;3.30;0.77;;;;;;;16.52;64.15;96566.38;4923806;29;20483;-82
2022/09/10 00:42:01;;;;;;;2.55;0.60;;;;;;;16.49;64.62;96561.56;4924896;29;20107;-87
2022/09/10 00:44:55;;;;;;;3.83;1.00;;;;;;;16.41;65.53;96562.66;4924709;29;20048;-89
2022/09/10 00:47:27;;;;;;;3.72;0.93;;;;;;;16.31;66.25;96559.75;4927245;29;20052;-88
2022/09/10 00:50:00;;;;;;;1.23;0.60;;;;;;;16.23;66.70;96558.19;4927283;29;20059;-83
2022/09/10 00:52:28;;;;;;;3.20;1.10;;;;;;;16.13;66.81;96555.25;4928014;29;20062;-86
2022/09/10 00:54:56;;;;;;;2.50;0.93;;;;;;;16.06;67.11;96551.88;4928082;29;20064;-87
2022/09/10 00:57:27;;;;;;;4.93;2.28;;;;;;;16.01;68.19;96543.84;4928338;29;20062;-88
2022/09/10 01:00:00;;;;;;;1.97;0.90;;;;;;;15.97;68.14;96542.66;4929313;29;20062;-86
2022/09/10 01:02:28;;;;;;;5.00;1.10;;;;;;;15.93;67.96;96552.81;4929066;29;20052;-86
2022/09/10 01:04:57;;;;;;;3.33;0.80;;;;;;;15.90;68.26;96545.38;4929631;29;20123;-88
2022/09/10 01:07:27;;;;;;;2.20;0.50;;;;;;;15.92;68.42;96555.66;4929582;29;20048;-86
2022/09/10 01:09:57;;;;;;;3.72;0.60;;;;;;;15.92;68.15;96550.38;4927915;29;20086;-85
2022/09/10 01:12:45;;;;;;;1.92;0.50;;;;;;;15.89;68.41;96550.84;4931409;29;20052;-84
2022/09/10 01:15:24;;;;;;;1.33;0.63;;;;;;;15.85;67.93;96543.38;4932962;29;20116;-85
2022/09/10 01:18:10;;;;;;;1.38;0.80;;;;;;;15.84;68.68;96539.13;4932733;29;20056;-86
2022/09/10 01:20:59;;;;;;;4.50;0.90;;;;;;;15.82;69.01;96530.66;4930830;29;20107;-84
2022/09/10 01:23:56;;;;;;;2.45;0.65;;;;;;;15.77;69.02;96538.41;4931797;29;20048;-83
2022/09/10 01:26:48;;;;;;;3.10;0.75;;;;;;;15.71;69.45;96534.00;4930897;29;20058;-86
2022/09/10 01:29:23;;;;;;;2.83;0.47;;;;;;;15.71;69.11;96525.28;4931428;29;20092;-84
2022/09/10 01:31:55;;;;;;;1.67;0.50;;;;;;;15.68;68.74;96528.31;4930220;29;20067;-83
2022/09/10 01:34:29;;;;;;;1.42;0.47;;;;;;;15.66;68.90;96531.19;4930161;29;20063;-84
2022/09/10 01:37:03;;;;;;;4.00;1.08;;;;;;;15.63;68.98;96527.16;4930129;29;20056;-81
2022/09/10 01:39:32;;;;;;;3.20;0.47;;;;;;;15.62;68.54;96530.81;4929561;29;20055;-84
2022/09/10 01:42:00;;;;;;;3.35;1.00;;;;;;;15.61;68.52;96518.69;4928873;29;20044;-86
2022/09/10 01:44:47;;;;;;;2.17;0.60;;;;;;;15.59;69.21;96520.72;4928644;29;20052;-83
2022/09/10 01:47:24;;;;;;;1.75;0.55;;;;;;;15.59;68.98;96525.97;4929243;29;20056;-82
2022/09/10 01:50:08;;;;;;;1.80;0.80;;;;;;;15.55;69.02;96519.53;4928904;29;20048;-83
2022/09/10 01:52:45;;;;;;;2.60;0.75;;;;;;;15.51;68.66;96517.56;4928449;29;20135;-80
2022/09/10 01:55:26;;;;;;;3.88;1.00;;;;;;;15.47;68.94;96522.44;4928851;29;20497;-82
2022/09/10 01:57:58;;;;;;;1.13;0.43;;;;;;;15.48;68.85;96521.44;4926103;29;20538;-84
2022/09/10 02:00:28;;;;;;;2.38;0.70;;;;;;;15.49;68.67;96524.84;4926251;29;20081;-82
2022/09/10 02:02:59;;;;;;;1.40;0.60;;;;;;;15.52;68.81;96514.69;4928503;29;20112;-87
2022/09/10 02:05:29;;;;;;;1.45;0.60;;;;;;;15.54;68.62;96520.53;4928390;29;20048;-86
2022/09/10 02:08:01;;;;;;;1.67;0.63;;;;;;;15.54;68.53;96512.66;4929465;29;20052;-85
2022/09/10 02:10:28;;;;;;;2.00;0.47;;;;;;;15.55;68.37;96509.03;4931925;29;20056;-85
2022/09/10 02:12:56;;;;;;;2.28;0.75;;;;;;;15.56;68.34;96507.19;4931335;29;20138;-82
2022/09/10 02:15:27;;;;;;;2.80;0.70;;;;;;;15.54;68.66;96510.03;4932238;29;20540;-80
2022/09/10 02:17:57;;;;;;;2.78;0.75;;;;;;;15.53;68.03;96521.56;4930879;29;20072;-89
2022/09/10 02:20:25;;;;;;;1.50;0.43;;;;;;;15.53;68.54;96505.81;4930785;29;20143;-81
2022/09/10 02:22:57;;;;;;;2.00;0.68;;;;;;;15.57;68.58;96520.13;4931438;29;20059;-86
2022/09/10 02:25:25;;;;;;;;;;;;;;;15.61;67.92;96512.59;4931783;29;20052;-83
2022/09/10 02:27:53;;;;;;;1.63;0.65;;;;;;;15.57;68.13;96517.50;4930445;29;19930;-83
2022/09/10 02:30:23;;;;;;;3.08;0.60;;;;;;;15.55;68.46;96521.38;4929378;29;20056;-81
2022/09/10 02:32:51;;;;;;;3.05;0.60;;;;;;;15.53;68.43;96516.31;4929882;29;20072;-86
2022/09/10 02:35:20;;;;;;;2.22;0.75;;;;;;;15.50;69.21;96531.72;4929303;29;20063;-82
2022/09/10 02:37:49;;;;;;;2.72;0.63;;;;;;;15.53;69.37;96536.56;4929815;29;20119;-85
2022/09/10 02:40:18;;;;;;;3.88;1.25;;;;;;;15.58;69.72;96528.81;4928186;29;20056;-85
2022/09/10 02:42:46;;;;;;;2.33;0.70;;;;;;;15.60;69.37;96514.44;4929871;29;20463;-81
2022/09/10 02:45:14;;;;;;;2.05;0.73;;;;;;;15.60;69.50;96517.06;4930213;29;20066;-83
2022/09/10 02:47:41;;;;;;;4.13;0.73;;;;;;;15.61;69.76;96513.44;4928849;29;20495;-81
2022/09/10 02:50:10;;;;;;;3.05;0.65;;;;;;;15.62;69.93;96509.75;4928241;29;20063;-83
2022/09/10 02:52:39;;;;;;;2.40;0.70;;;;;;;15.62;69.88;96515.03;4927971;29;20048;-80
2022/09/10 02:55:07;;;;;;;8.07;0.73;;;;;;;15.61;70.08;96513.44;4927492;29;20088;-83
2022/09/10 02:57:35;;;;;;;3.67;0.80;;;;;;;15.59;70.21;96522.53;4927307;29;20059;-79
2022/09/10 03:00:03;;;;;;;2.60;0.93;;;;;;;15.62;71.27;96546.56;4931473;29;20090;-82
2022/09/10 03:02:31;;;;;;;4.93;1.88;;;;;;;15.72;71.55;96553.19;4933603;29;20123;-84
2022/09/10 03:04:59;;;;;;;3.53;1.00;;;;;;;15.79;71.43;96530.31;4933696;29;20629;-83
2022/09/10 03:07:26;;;;;;;2.10;0.85;;;;;;;15.79;70.46;96522.41;4932817;29;20124;-81
2022/09/10 03:09:55;;;;;;;2.03;0.73;;;;;;;15.72;70.85;96534.78;4932185;29;20060;-85
2022/09/10 03:12:23;;;;;;;2.20;0.70;;;;;;;15.66;71.00;96529.34;4930995;29;20063;-85
2022/09/10 03:14:50;;;;;;;2.58;0.80;;;;;;;15.61;71.25;96529.19;4931119;29;20052;-80
2022/09/10 03:17:18;;;;;;;1.50;0.88;;;;;;;15.58;71.29;96527.00;4930988;29;20052;-82
2022/09/10 03:19:45;;;;;;;3.13;1.08;;;;;;;15.55;71.75;96527.44;4929244;29;20067;-80
2022/09/10 03:22:13;;;;;;;1.75;0.70;;;;;;;15.52;71.66;96522.59;4927634;29;20051;-82
2022/09/10 03:24:41;;;;;;;3.38;0.75;;;;;;;15.52;71.79;96535.72;4927749;29;20062;-80
2022/09/10 03:27:12;;;;;;;1.65;0.68;;;;;;;15.52;71.97;96530.47;4926876;29;20052;-79
2022/09/10 03:29:40;;;;;;;1.73;0.80;;;;;;;15.56;72.07;96531.66;4927407;29;20083;-83
2022/09/10 03:32:07;;;;;;;2.75;0.70;;;;;;;15.57;71.54;96514.88;4925532;29;20487;-80
2022/09/10 03:34:35;;;;;;;3.30;0.88;;;;;;;15.52;71.69;96509.44;4925881;29;20059;-82
2022/09/10 03:37:03;;;;;;;3.03;1.00;;;;;;;15.52;71.90;96509.44;4925419;29;20131;-85
2022/09/10 03:39:30;;;;;;;1.65;0.60;;;;;;;15.50;71.68;96518.56;4924853;29;20143;-80
2022/09/10 03:41:58;;;;;;;2.25;0.80;;;;;;;15.48;71.45;96521.44;4924161;29;20431;-79
2022/09/10 03:44:27;;;;;;;2.70;1.05;;;;;;;15.42;71.89;96525.69;4923154;29;20055;-81
2022/09/10 03:46:54;;;;;;;4.15;0.70;;;;;;;15.42;72.04;96530.16;4924216;29;20055;-80
2022/09/10 03:49:22;;;;;;;1.92;0.47;;;;;;;15.45;71.94;96529.72;4924741;29;20052;-84
2022/09/10 03:51:49;;;;;;;2.22;0.70;;;;;;;15.51;72.17;96530.69;4923791;29;20071;-81
2022/09/10 03:54:18;;;;;;;2.13;0.68;;;;;;;15.55;71.85;96530.06;4923937;29;20418;-80
2022/09/10 03:56:45;;;;;;;1.38;0.60;;;;;;;15.56;71.50;96521.13;4924322;29;20059;-85
2022/09/10 03:59:13;;;;;;;1.65;0.57;;;;;;;15.53;71.37;96503.19;4930960;29;20056;-84
2022/09/10 04:01:42;;;;;;;0.82;0.65;;;;;;;15.49;71.84;96519.59;4931907;29;20063;-81
2022/09/10 04:04:10;;;;;;;1.85;0.68;;;;;;;15.47;71.64;96516.38;4930631;29;20466;-82
2022/09/10 04:06:39;;;;;;;1.60;0.85;;;;;;;15.44;71.94;96513.16;4931140;29;20062;-83
2022/09/10 04:09:06;;;;;;;1.35;0.50;;;;;;;15.45;71.80;96516.59;4931232;29;20067;-81
2022/09/10 04:11:34;;;;;;;7.78;0.70;;;;;;;15.45;71.74;96512.13;4929172;29;20082;-87
2022/09/10 04:14:02;;;;;;;1.75;0.50;;;;;;;15.44;72.20;96509.72;4928838;29;20048;-79
2022/09/10 04:16:31;;;;;;;1.10;0.52;;;;;;;15.42;71.91;96515.19;4927913;29;20071;-82
2022/09/10 04:19:00;;;;;;;1.52;0.55;;;;;;;15.39;71.96;96512.19;4928377;29;20063;-85
2022/09/10 04:21:27;;;;;;;0.40;0.40;;;;;;;15.33;72.08;96503.34;4926385;29;20055;-83
2022/09/10 04:23:55;;;;;;;1.70;0.88;;;;;;;15.29;72.48;96502.16;4926988;29;20143;-80
2022/09/10 04:26:23;;;;;;;0.73;0.50;;;;;;;15.25;72.46;96507.03;4926157;29;20056;-81
2022/09/10 04:28:51;;;;;;;0.40;0.30;;;;;;;15.23;72.72;96501.16;4925937;29;20139;-80
2022/09/10 04:31:19;;;;;;;1.42;0.50;;;;;;;15.20;72.67;96512.13;4923719;29;20570;-81
2022/09/10 04:33:47;;;;;;;1.92;0.50;;;;;;;15.18;72.56;96508.91;4924862;29;20495;-82
2022/09/10 04:36:16;;;;;;;0.70;0.45;;;;;;;15.16;73.13;96505.69;4924578;29;20056;-81
2022/09/10 04:38:44;;;;;;;2.00;0.47;;;;;;;15.16;73.11;96495.16;4924358;29;20059;-79
2022/09/10 04:41:14;;;;;;;2.00;0.60;;;;;;;15.18;72.87;96498.38;4922849;29;20495;-79
2022/09/10 04:43:42;;;;;;;2.95;1.13;;;;;;;15.20;73.16;96501.59;4922842;29;20054;-79
2022/09/10 04:46:10;;;;;;;1.15;0.52;;;;;;;15.24;72.37;96499.38;4922244;29;20052;-79
2022/09/10 04:48:37;;;;;;;1.05;0.60;;;;;;;15.22;72.04;96504.84;4922241;29;20086;-81
2022/09/10 04:51:05;;;;;;;0.90;0.50;;;;;;;15.16;72.41;96510.94;4920867;29;20052;-80
2022/09/10 04:53:45;;;;;;;1.70;0.60;;;;;;;15.10;72.36;96514.41;4920192;29;20052;-79
2022/09/10 04:56:13;;;;;;;2.70;0.60;;;;;;;15.09;72.57;96518.06;4921139;29;20078;-80
2022/09/10 04:58:42;;;;;;;1.70;0.50;;;;;;;15.13;73.24;96508.75;4926793;29;20067;-82
2022/09/10 05:01:10;;;;;;;0.88;0.88;;;;;;;15.19;72.58;96512.31;4928732;29;20058;-82
2022/09/10 05:03:38;;;;;;;1.50;0.50;;;;;;;15.19;72.51;96509.69;4929245;29;20052;-84
2022/09/10 05:06:06;;;;;;;2.33;0.50;;;;;;;15.16;72.26;96515.38;4928807;29;20048;-83
2022/09/10 05:08:35;;;;;;;3.13;0.93;;;;;;;15.11;72.53;96516.03;4928486;29;20412;-84
2022/09/10 05:11:04;;;;;;;3.70;0.90;;;;;;;15.08;72.59;96521.69;4927512;29;20094;-80
2022/09/10 05:13:31;;;;;;;1.42;0.60;;;;;;;15.08;72.67;96520.88;4927746;29;20051;-81
2022/09/10 05:16:00;;;;;;;0.70;0.55;;;;;;;15.09;73.01;96523.31;4928035;29;20249;-81
2022/09/10 05:18:28;;;;;;;3.63;0.70;;;;;;;15.12;72.80;96517.63;4927630;29;20079;-83
2022/09/10 05:20:55;;;;;;;1.27;0.40;;;;;;;15.12;72.83;96520.25;4927354;29;20063;-82
2022/09/10 05:23:23;;;;;;;2.53;0.90;;;;;;;15.14;72.90;96523.47;4926728;29;20521;-80
2022/09/10 05:25:50;;;;;;;1.92;0.80;;;;;;;15.14;72.96;96525.31;4929284;29;20056;-81
2022/09/10 05:28:20;;;;;;;2.33;0.75;;;;;;;15.11;73.23;96526.53;4931117;29;20059;-84
2022/09/10 05:30:48;;;;;;;3.15;0.77;;;;;;;15.12;73.17;96525.50;4931104;29;20086;-84
2022/09/10 05:33:18;;;;;;;2.38;1.27;;;;;;;15.11;72.96;96531.78;4931065;29;20055;-86
2022/09/10 05:35:50;;;;;;;2.17;0.85;;;;;;;15.09;73.21;96533.81;4930858;29;20048;-84
2022/09/10 05:38:18;;;;;;;0.63;0.63;;;;;;;15.09;73.16;96536.44;4929613;29;20052;-84
2022/09/10 05:40:47;;;;;;;2.65;0.73;;;;;;;15.11;73.04;96533.59;4927818;29;20048;-80
2022/09/10 05:43:14;;;;;;;1.45;0.60;;;;;;;15.10;72.90;96532.78;4932031;29;20064;-84
2022/09/10 06:06:34;;;;;;;0.60;0.60;;;;;;;15.25;72.54;96525.41;4922586;29;20032;-79
2022/09/10 06:09:02;;;;;;;1.05;0.60;;;;;;;15.26;72.67;96541.97;4922730;29;20115;-79
2022/09/10 06:11:30;;;;;;;1.15;0.70;;;;;;;15.26;72.68;96534.09;4923172;29;20080;-79
2022/09/10 06:13:57;;;;;;;3.85;1.38;;;;;;;15.27;72.63;96537.56;4923893;29;20132;-79
2022/09/10 06:16:25;;;;;;;1.20;0.40;;;;;;;15.28;73.06;96534.69;4903380;29;20139;-78
2022/09/10 06:48:31;;;;;;;5.68;2.65;;;;;;;15.64;73.56;96564.78;5003696;23;20068;-79
2022/09/10 06:51:11;;;;;;;2.17;0.82;;;;;;;15.68;73.09;96559.88;4903018;29;20064;-80
2022/09/10 07:00:32;;;;;;;0.93;0.77;;;;;;;15.69;73.20;96561.50;4926963;23;20083;-81
2022/09/10 07:03:00;;;;;;;3.40;1.27;;;;;;;15.68;73.81;96573.84;4980917;28;20119;-81
2022/09/10 07:05:32;;;;;;;1.58;0.77;;;;;;;15.72;74.04;96572.44;4978364;29;20043;-81
2022/09/10 07:08:00;;;;;;;3.58;1.00;;;;;;;15.77;73.92;96569.16;4979167;29;20047;-81
2022/09/10 07:10:30;;;;;;;1.98;0.90;;;;;;;15.85;74.06;96576.75;4978982;28;20123;-81
2022/09/10 07:29:52;;;;;;;4.38;0.50;;;;;;;16.14;72.88;96579.75;5165487;23;20033;-80
2022/09/10 07:47:19;;;;;;;4.65;1.77;;;;;;;16.28;72.32;96597.00;5306845;23;20031;-79
2022/09/10 07:54:15;;;;;;;1.25;0.90;;;;;;;16.31;73.37;96606.31;5702880;23;20045;-81
2022/09/10 08:40:43;;;;;;;2.15;0.50;;;;;;;17.49;69.02;96649.94;4921160;29;20047;-81
2022/09/10 08:43:13;;;;;;;1.33;0.40;;;;;;;17.53;69.60;96640.53;4922726;29;20060;-80
2022/09/10 08:45:48;;;;;;;0.85;0.32;;;;;;;17.59;69.33;96644.94;4922673;29;20041;-80
2022/09/10 08:48:18;;;;;;;0.57;0.30;;;;;;;17.61;69.30;96647.34;4922656;29;20069;-81
2022/09/10 08:50:52;;;;;;;2.83;0.40;;;;;;;17.64;69.38;96642.41;4922567;29;20036;-81
2022/09/10 08:53:26;;;;;;;1.75;0.50;;;;;;;17.69;69.45;96653.09;4935224;23;20399;-87
2022/09/10 08:56:01;;;;;;;1.83;0.65;;;;;;;17.70;68.66;96656.53;4928789;29;20111;-86
2022/09/10 08:58:39;;;;;;;0.90;0.50;;;;;;;17.74;69.42;96641.06;4926661;29;20221;-83
2022/09/10 09:01:14;;;;;;;1.25;0.77;;;;;;;17.89;70.20;96650.19;4926014;29;20123;-85
2022/09/10 09:03:44;;;;;;;0.80;0.43;;;;;;;18.13;67.69;96652.88;4925890;29;20059;-85
2022/09/10 09:06:24;;;;;;;17.20;10.63;;;;;;;18.42;67.94;96653.00;4925553;29;20048;-86
2022/09/10 09:08:53;;;;;;;10.23;7.88;;;;;;;18.67;66.50;96650.09;4923936;29;20052;-85
2022/09/10 09:11:33;;;;;;;1.45;0.73;;;;;;;18.82;64.52;96654.94;4923162;29;20070;-85
2022/09/10 09:14:12;;;;;;;3.42;1.23;;;;;;;18.89;64.19;96653.78;4924104;29;20386;-84
2022/09/10 09:16:58;;;;;;;1.02;0.50;;;;;;;18.98;63.02;96653.41;4924355;29;20094;-80
2022/09/10 09:19:32;;;;;;;4.63;2.00;;;;;;;19.26;61.81;96664.03;4928576;29;20052;-86
2022/09/10 09:22:06;;;;;;;2.30;1.38;;;;;;;19.59;62.12;96661.69;4929052;29;20056;-84
2022/09/10 09:24:47;;;;;;;1.05;0.80;;;;;;;19.87;60.12;96666.19;4929285;29;20051;-82
2022/09/10 09:27:19;;;;;;;1.25;0.90;;;;;;;20.07;60.61;96669.19;4929987;29;20059;-88
2022/09/10 09:29:51;;;;;;;1.42;0.82;;;;;;;20.05;59.33;96660.69;4930464;29;20115;-81
2022/09/10 09:32:21;;;;;;;1.73;0.45;;;;;;;20.02;59.41;96663.78;4930744;29;20054;-87
2022/09/10 09:34:53;;;;;;;0.60;0.57;;;;;;;20.06;59.85;96667.56;4931208;29;20051;-83
2022/09/10 09:37:24;;;;;;;1.98;0.32;;;;;;;20.09;57.66;96660.97;4931309;29;20052;-81
2022/09/10 09:40:05;;;;;;;1.08;0.28;;;;;;;20.36;58.55;96645.25;4931717;29;20079;-87
2022/09/10 09:42:41;;;;;;;1.77;0.68;;;;;;;21.06;56.51;96648.31;4931262;29;20474;-87
2022/09/10 09:45:22;;;;;;;1.17;0.57;;;;;;;21.56;56.26;96639.34;4931792;29;20055;-83
2022/09/10 09:47:50;;;;;;;1.75;0.22;;;;;;;21.87;52.83;96644.94;4932315;29;20052;-82
2022/09/10 09:50:18;;;;;;;1.08;0.22;;;;;;;21.92;53.72;96647.63;4931139;29;20056;-85
2022/09/10 09:52:46;;;;;;;1.65;0.30;;;;;;;21.87;52.42;96643.06;4932291;29;20107;-82
2022/09/10 09:55:26;;;;;;;2.03;0.60;;;;;;;21.81;51.94;96644.88;4932613;29;20048;-86
2022/09/10 09:58:32;;;;;;;0.98;0.25;;;;;;;22.05;53.12;96652.50;4934723;29;20048;-84
2022/09/10 10:01:19;;;;;;;0.82;0.20;;;;;;;21.93;52.26;96647.38;4934937;29;20120;-85
2022/09/10 10:03:57;;;;;;;1.35;0.20;;;;;;;21.71;52.10;96641.31;4935428;29;20086;-85
2022/09/10 10:06:28;;;;;;;0.90;0.30;;;;;;;21.50;53.13;96643.00;4934948;29;20048;-83
2022/09/10 10:08:59;;;;;;;2.42;0.30;;;;;;;21.44;53.13;96638.69;4934981;29;20054;-84
2022/09/10 10:11:56;;;;;;;0.30;0.20;;;;;;;21.69;53.80;96636.28;4933922;29;20060;-82
2022/09/10 10:14:35;;;;;;;1.65;0.32;;;;;;;21.94;52.68;96632.22;4899812;29;20087;-82
2022/09/10 10:17:20;;;;;;;7.05;4.07;;;;;;;22.00;53.85;96632.03;4933825;29;20048;-82
2022/09/10 10:19:58;;;;;;;8.52;5.80;;;;;;;22.02;53.48;96619.28;4931944;29;20123;-82
2022/09/10 10:22:28;;;;;;;1.02;0.50;;;;;;;21.99;52.69;96621.63;4932251;29;20483;-84
2022/09/10 10:24:56;;;;;;;2.85;0.40;;;;;;;21.98;53.35;96628.03;4931875;29;20059;-84
2022/09/10 10:27:31;;;;;;;2.30;0.38;;;;;;;21.85;51.24;96618.63;4930982;29;20132;-83
2022/09/10 10:30:04;;;;;;;1.92;0.40;;;;;;;21.80;52.93;96615.94;4929452;29;20055;-84
2022/09/10 10:32:40;;;;;;;0.88;0.30;;;;;;;21.72;53.92;96624.34;4930278;29;20514;-83
2022/09/10 10:35:34;;;;;;;1.08;0.20;;;;;;;21.55;51.60;96619.94;4930893;29;20155;-81
2022/09/10 10:38:25;;;;;;;1.67;0.20;;;;;;;21.48;51.95;96622.00;4923683;29;20060;-83
2022/09/10 10:41:08;;;;;;;2.58;0.50;;;;;;;21.62;52.85;96611.78;4928396;29;20048;-81
2022/09/10 10:43:47;;;;;;;1.45;0.40;;;;;;;21.66;50.82;96599.59;4929463;29;20147;-83
2022/09/10 10:46:20;;;;;;;1.75;0.38;;;;;;;21.77;50.07;96608.44;4930517;29;20138;-85
2022/09/10 10:49:01;;;;;;;17.27;10.45;;;;;;;21.69;51.39;96598.28;4934365;29;20063;-85
2022/09/10 10:51:41;;;;;;;9.55;4.63;;;;;;;21.64;51.98;96601.72;4932052;29;20084;-86
2022/09/10 10:54:27;;;;;;;3.13;0.70;;;;;;;21.50;51.61;96596.00;4932354;29;20133;-84
2022/09/10 10:57:05;;;;;;;2.30;0.45;;;;;;;21.47;51.87;96603.66;4931832;29;20503;-85
2022/09/10 10:59:45;;;;;;;0.55;0.32;;;;;;;21.64;52.52;96593.75;4930872;29;20048;-83
2022/09/10 11:02:20;;;;;;;4.28;0.50;;;;;;;21.78;51.51;96591.47;4928573;29;20074;-82
2022/09/10 11:04:50;;;;;;;2.53;0.40;;;;;;;21.78;50.98;96589.63;4928325;29;20056;-83
2022/09/10 11:07:22;;;;;;;3.45;0.40;;;;;;;21.64;52.30;96596.41;4928926;29;20079;-86
2022/09/10 11:09:57;;;;;;;0.57;0.30;;;;;;;21.33;53.22;96598.72;4928335;29;20048;-82
2022/09/10 11:12:30;;;;;;;2.75;0.60;;;;;;;21.05;54.98;96606.94;4927514;29;20419;-81
2022/09/10 11:15:02;;;;;;;0.80;0.45;;;;;;;20.79;55.24;96611.91;4927427;29;20136;-85
2022/09/10 11:17:38;;;;;;;1.83;0.22;;;;;;;20.55;56.94;96621.91;4927196;29;20092;-80
2022/09/10 11:20:13;;;;;;;1.02;0.32;;;;;;;20.28;58.18;96637.72;4926288;29;20079;-83
2022/09/10 11:23:03;;;;;;;1.48;0.70;;;;;;;20.04;58.80;96642.38;4925464;29;20138;-83
2022/09/10 11:25:38;;;;;;;2.33;0.68;;;;;;;19.81;59.39;96636.19;4925819;29;20080;-81
2022/09/10 11:28:13;;;;;;;3.67;1.25;;;;;;;19.64;60.03;96632.69;4924737;29;20141;-81
2022/09/10 11:30:56;;;;;;;2.67;0.30;;;;;;;19.47;59.90;96628.16;4925360;29;20063;-80
2022/09/10 11:33:33;;;;;;;2.75;0.52;;;;;;;19.38;59.03;96634.09;4925625;29;20442;-83
2022/09/10 11:36:10;;;;;;;1.00;0.50;;;;;;;19.33;60.92;96630.31;4924917;29;20485;-82
2022/09/10 11:38:49;;;;;;;1.33;0.60;;;;;;;19.32;60.96;96631.31;4925444;29;20052;-86
2022/09/10 11:41:21;;;;;;;0.95;0.30;;;;;;;19.29;61.18;96634.47;4927137;29;20052;-82
2022/09/10 11:43:57;;;;;;;4.22;1.83;;;;;;;19.28;63.31;96635.47;4926645;29;20108;-87
2022/09/10 11:46:31;;;;;;;1.38;0.40;;;;;;;19.23;60.49;96638.03;4929293;29;20044;-85
2022/09/10 11:49:05;;;;;;;3.35;1.20;;;;;;;19.22;63.76;96647.03;4930400;29;20072;-83
2022/09/10 11:51:35;;;;;;;1.95;0.80;;;;;;;19.24;61.76;96639.66;4929795;29;20056;-86
2022/09/10 11:54:06;;;;;;;3.65;1.33;;;;;;;19.24;63.22;96655.53;4929522;29;20534;-84
2022/09/10 11:56:58;;;;;;;3.00;1.48;;;;;;;19.23;64.25;96648.63;4931182;29;20052;-83
2022/09/10 11:59:53;;;;;;;1.25;0.50;;;;;;;19.18;63.78;96648.53;4930022;29;20088;-86
2022/09/10 12:02:51;;;;;;;2.67;0.50;;;;;;;19.11;63.79;96639.91;4927797;29;20131;-81
2022/09/10 12:05:26;;;;;;;1.25;0.60;;;;;;;19.07;63.45;96641.44;4921253;29;20052;-84
2022/09/10 12:08:03;;;;;;;3.42;0.90;;;;;;;19.06;64.37;96643.25;4927771;29;20151;-84
2022/09/10 12:10:35;;;;;;;2.17;0.77;;;;;;;19.04;65.17;96639.25;4927149;29;20469;-83
2022/09/10 12:13:08;;;;;;;2.95;1.40;;;;;;;19.01;64.65;96639.72;4928269;29;20481;-86
2022/09/10 12:15:37;;;;;;;2.85;1.20;;;;;;;18.96;65.34;96629.03;4929793;29;20115;-84
2022/09/10 12:18:13;;;;;;;2.25;0.50;;;;;;;18.97;63.92;96618.25;4928739;29;20494;-88
2022/09/10 12:20:48;;;;;;;2.15;0.60;;;;;;;19.08;64.80;96613.94;4928467;29;20055;-84
2022/09/10 12:23:18;;;;;;;2.20;0.73;;;;;;;19.30;64.85;96614.91;4929501;29;20063;-85
2022/09/10 12:25:56;;;;;;;1.30;0.73;;;;;;;19.41;63.89;96607.16;4928972;29;20138;-84
2022/09/10 12:29:03;;;;;;;1.33;0.52;;;;;;;19.42;63.75;96608.78;4930571;29;20044;-86
2022/09/10 12:32:04;;;;;;;1.52;0.63;;;;;;;19.41;64.17;96602.66;4929116;29;20134;-84
2022/09/10 12:34:31;;;;;;;1.85;0.82;;;;;;;19.47;64.54;96601.72;4928859;29;20066;-84
2022/09/10 12:37:26;;;;;;;2.58;0.60;;;;;;;19.60;63.63;96589.22;4929863;29;20052;-85
2022/09/10 12:40:31;;;;;;;2.63;0.82;;;;;;;19.70;63.52;96590.22;4929976;29;20056;-87
2022/09/10 12:43:20;;;;;;;1.10;0.57;;;;;;;19.84;62.85;96588.06;4929744;29;20063;-82
2022/09/10 12:46:01;;;;;;;2.70;0.82;;;;;;;19.98;64.59;96585.09;4931310;29;20052;-85
2022/09/10 12:48:29;;;;;;;1.52;0.60;;;;;;;20.04;62.84;96579.63;4931307;29;20566;-87
2022/09/10 12:50:59;;;;;;;1.17;0.35;;;;;;;20.08;62.58;96591.34;4930232;29;20399;-85
2022/09/10 12:54:06;;;;;;;1.73;0.52;;;;;;;20.09;61.67;96587.63;4929596;29;20048;-84
2022/09/10 12:57:16;;;;;;;1.85;0.80;;;;;;;20.10;62.73;96583.97;4929428;29;20052;-82
2022/09/10 13:00:12;;;;;;;4.00;1.20;;;;;;;20.19;61.75;96588.84;4927541;29;20059;-86
2022/09/10 13:02:47;;;;;;;2.22;1.00;;;;;;;20.30;64.00;96578.13;4927860;29;20541;-81
2022/09/10 13:05:24;;;;;;;0.70;0.40;;;;;;;20.35;61.35;96574.75;4926719;29;20064;-86
2022/09/10 13:08:20;;;;;;;0.82;0.50;;;;;;;20.34;61.14;96568.66;4926885;29;20052;-86
2022/09/10 13:11:15;;;;;;;2.15;0.95;;;;;;;20.41;61.54;96568.47;4913549;29;20048;-85
2022/09/10 13:13:50;;;;;;;1.13;0.45;;;;;;;20.53;61.24;96571.84;4926085;29;20435;-81
2022/09/10 13:16:37;;;;;;;2.38;0.73;;;;;;;20.64;61.45;96571.97;4925398;29;20052;-85
2022/09/10 13:19:41;;;;;;;1.60;0.30;;;;;;;20.71;59.39;96576.06;4924902;29;20059;-82
2022/09/10 13:22:54;;;;;;;1.85;0.43;;;;;;;20.71;58.79;96573.41;4924593;29;20062;-82
2022/09/10 13:25:33;;;;;;;2.38;0.70;;;;;;;20.69;58.89;96572.06;4924399;29;20059;-85
2022/09/10 13:28:11;;;;;;;1.17;0.45;;;;;;;20.62;58.32;96574.06;4923079;29;20052;-81
2022/09/10 13:30:39;;;;;;;3.47;0.70;;;;;;;20.57;58.46;96567.69;4920222;29;20048;-81
2022/09/10 13:33:13;;;;;;;1.02;0.50;;;;;;;20.55;59.81;96568.91;4922954;29;20422;-82
2022/09/10 13:36:04;;;;;;;1.20;0.60;;;;;;;20.53;59.93;96563.06;4924206;29;20063;-86
2022/09/10 13:38:53;;;;;;;3.17;0.52;;;;;;;20.51;59.12;96563.31;4927376;29;20048;-88
2022/09/10 13:41:38;;;;;;;0.85;0.43;;;;;;;20.50;59.28;96561.72;4925963;29;20108;-86
2022/09/10 13:44:25;;;;;;;2.40;0.60;;;;;;;20.49;57.95;96560.13;4926313;29;20052;-85
2022/09/10 13:46:56;;;;;;;1.45;0.32;;;;;;;20.53;57.96;96555.94;4927388;29;20072;-83
2022/09/10 13:49:31;;;;;;;1.45;0.40;;;;;;;20.57;56.29;96559.72;4929036;29;20055;-89
2022/09/10 13:52:03;;;;;;;1.20;0.30;;;;;;;20.65;56.47;96557.69;4929385;29;20491;-86
2022/09/10 13:54:34;;;;;;;1.10;0.50;;;;;;;20.72;55.12;96561.75;4930082;29;20511;-84
2022/09/10 13:57:10;;;;;;;1.83;0.65;;;;;;;20.72;55.92;96548.50;4930463;29;20054;-85
2022/09/10 13:59:41;;;;;;;1.95;0.43;;;;;;;20.73;55.00;96558.06;4928994;29;20140;-85
2022/09/10 14:02:09;;;;;;;0.47;0.22;;;;;;;20.72;54.01;96558.28;4927652;29;20053;-82
2022/09/10 14:04:38;;;;;;;2.10;0.30;;;;;;;20.72;53.90;96563.59;4931323;29;20052;-85
2022/09/10 14:07:14;;;;;;;2.35;0.20;;;;;;;20.74;53.95;96557.00;4931560;29;20220;-82
2022/09/10 14:09:45;;;;;;;0.50;0.30;;;;;;;20.78;53.86;96559.97;4931496;29;20499;-84
2022/09/10 14:12:14;;;;;;;1.83;0.40;;;;;;;20.75;54.39;96552.50;4930430;29;20028;-80
2022/09/10 14:14:47;;;;;;;1.15;0.30;;;;;;;20.69;55.63;96559.59;4931101;29;20067;-86
2022/09/10 14:17:18;;;;;;;1.73;0.68;;;;;;;20.60;55.12;96561.09;4929995;29;20123;-82
2022/09/10 14:19:50;;;;;;;0.88;0.30;;;;;;;20.57;55.86;96557.06;4930287;29;20083;-83
2022/09/10 14:22:21;;;;;;;;;;;;;;;20.58;55.72;96563.97;4929475;29;20147;-80